sensor_id;sensor_type;location;lat;lon;timestamp;P1;durP1;ratioP1;P2;durP2;ratioP2
27796;SDS011;15177;50.844;4.412;2022-10-22T00:00:08;11.82;;;3.92;;
27796;SDS011;15177;50.844;4.412;2022-10-22T00:02:35;8.38;;;3.03;;
27796;SDS011;15177;50.844;4.412;2022-10-22T00:05:00;13.45;;;2.97;;
27796;SDS011;15177;50.844;4.412;2022-10-22T00:07:26;11.27;;;3.40;;
27796;SDS011;15177;50.844;4.412;2022-10-22T00:09:52;8.82;;;3.45;;
27796;SDS011;15177;50.844;4.412;2022-10-22T00:12:18;9.50;;;2.80;;
27796;SDS011;15177;50.844;4.412;2022-10-22T00:14:43;11.57;;;3.40;;
27796;SDS011;15177;50.844;4.412;2022-10-22T00:17:09;19.55;;;3.45;;
27796;SDS011;15177;50.844;4.412;2022-10-22T00:19:35;9.90;;;2.80;;
27796;SDS011;15177;50.844;4.412;2022-10-22T00:22:01;12.65;;;3.15;;
27796;SDS011;15177;50.844;4.412;2022-10-22T00:24:29;10.00;;;2.28;;
27796;SDS011;15177;50.844;4.412;2022-10-22T00:26:56;11.38;;;3.13;;
27796;SDS011;15177;50.844;4.412;2022-10-22T00:29:23;10.27;;;2.97;;
27796;SDS011;15177;50.844;4.412;2022-10-22T00:31:49;9.10;;;2.95;;
27796;SDS011;15177;50.844;4.412;2022-10-22T00:34:18;5.25;;;3.08;;
27796;SDS011;15177;50.844;4.412;2022-10-22T00:36:46;9.15;;;2.80;;
27796;SDS011;15177;50.844;4.412;2022-10-22T00:39:13;10.38;;;2.83;;
27796;SDS011;15177;50.844;4.412;2022-10-22T00:41:40;8.68;;;2.55;;
27796;SDS011;15177;50.844;4.412;2022-10-22T00:47:27;8.55;;;3.08;;
27796;SDS011;15177;50.844;4.412;2022-10-22T00:49:55;8.52;;;3.05;;
27796;SDS011;15177;50.844;4.412;2022-10-22T00:52:22;10.63;;;2.80;;
27796;SDS011;15177;50.844;4.412;2022-10-22T00:54:48;10.38;;;3.60;;
27796;SDS011;15177;50.844;4.412;2022-10-22T00:57:15;10.00;;;3.33;;
27796;SDS011;15177;50.844;4.412;2022-10-22T00:59:43;14.15;;;2.95;;
27796;SDS011;15177;50.844;4.412;2022-10-22T01:02:10;9.70;;;3.15;;
27796;SDS011;15177;50.844;4.412;2022-10-22T01:04:35;11.02;;;2.78;;
27796;SDS011;15177;50.844;4.412;2022-10-22T01:07:01;9.57;;;2.95;;
27796;SDS011;15177;50.844;4.412;2022-10-22T01:09:35;11.70;;;2.75;;
27796;SDS011;15177;50.844;4.412;2022-10-22T01:12:30;8.77;;;3.35;;
27796;SDS011;15177;50.844;4.412;2022-10-22T01:15:38;12.85;;;3.13;;
27796;SDS011;15177;50.844;4.412;2022-10-22T01:23:18;9.90;;;2.97;;
27796;SDS011;15177;50.844;4.412;2022-10-22T01:26:08;15.77;;;2.95;;
27796;SDS011;15177;50.844;4.412;2022-10-22T01:31:26;8.02;;;2.45;;
27796;SDS011;15177;50.844;4.412;2022-10-22T01:33:56;11.88;;;2.30;;
27796;SDS011;15177;50.844;4.412;2022-10-22T01:36:24;6.45;;;2.55;;
27796;SDS011;15177;50.844;4.412;2022-10-22T01:38:51;26.42;;;3.28;;
27796;SDS011;15177;50.844;4.412;2022-10-22T01:41:18;6.95;;;3.10;;
27796;SDS011;15177;50.844;4.412;2022-10-22T01:43:44;8.80;;;2.67;;
27796;SDS011;15177;50.844;4.412;2022-10-22T01:46:10;13.07;;;3.58;;
27796;SDS011;15177;50.844;4.412;2022-10-22T01:57:23;10.10;;;2.50;;
27796;SDS011;15177;50.844;4.412;2022-10-22T02:00:11;9.70;;;2.83;;
27796;SDS011;15177;50.844;4.412;2022-10-22T02:05:45;14.75;;;2.85;;
27796;SDS011;15177;50.844;4.412;2022-10-22T02:08:19;4.68;;;2.17;;
27796;SDS011;15177;50.844;4.412;2022-10-22T02:10:51;7.10;;;2.00;;
27796;SDS011;15177;50.844;4.412;2022-10-22T02:13:38;7.72;;;2.40;;
27796;SDS011;15177;50.844;4.412;2022-10-22T02:16:12;6.28;;;2.40;;
27796;SDS011;15177;50.844;4.412;2022-10-22T02:18:43;5.65;;;2.42;;
27796;SDS011;15177;50.844;4.412;2022-10-22T02:21:11;6.03;;;1.90;;
27796;SDS011;15177;50.844;4.412;2022-10-22T02:23:39;7.60;;;2.10;;
27796;SDS011;15177;50.844;4.412;2022-10-22T02:26:06;10.27;;;2.15;;
27796;SDS011;15177;50.844;4.412;2022-10-22T02:28:38;7.30;;;2.13;;
27796;SDS011;15177;50.844;4.412;2022-10-22T02:31:19;8.65;;;2.50;;
27796;SDS011;15177;50.844;4.412;2022-10-22T02:33:49;6.30;;;2.10;;
27796;SDS011;15177;50.844;4.412;2022-10-22T02:36:18;3.65;;;1.80;;
27796;SDS011;15177;50.844;4.412;2022-10-22T02:38:45;10.95;;;2.08;;
27796;SDS011;15177;50.844;4.412;2022-10-22T02:41:14;9.20;;;2.33;;
27796;SDS011;15177;50.844;4.412;2022-10-22T02:43:41;6.40;;;2.25;;
27796;SDS011;15177;50.844;4.412;2022-10-22T02:46:18;8.48;;;2.22;;
27796;SDS011;15177;50.844;4.412;2022-10-22T02:48:44;9.45;;;2.28;;
27796;SDS011;15177;50.844;4.412;2022-10-22T02:51:10;18.67;;;1.90;;
27796;SDS011;15177;50.844;4.412;2022-10-22T02:53:35;9.15;;;2.10;;
27796;SDS011;15177;50.844;4.412;2022-10-22T02:56:02;5.03;;;1.58;;
27796;SDS011;15177;50.844;4.412;2022-10-22T02:58:28;8.70;;;2.15;;
27796;SDS011;15177;50.844;4.412;2022-10-22T03:00:54;12.07;;;2.20;;
27796;SDS011;15177;50.844;4.412;2022-10-22T03:03:19;8.95;;;1.90;;
27796;SDS011;15177;50.844;4.412;2022-10-22T03:05:45;9.80;;;2.00;;
27796;SDS011;15177;50.844;4.412;2022-10-22T03:08:11;7.03;;;1.90;;
27796;SDS011;15177;50.844;4.412;2022-10-22T03:10:37;11.35;;;1.80;;
27796;SDS011;15177;50.844;4.412;2022-10-22T03:13:02;9.65;;;2.38;;
27796;SDS011;15177;50.844;4.412;2022-10-22T03:15:28;10.77;;;1.75;;
27796;SDS011;15177;50.844;4.412;2022-10-22T03:17:54;7.30;;;2.00;;
27796;SDS011;15177;50.844;4.412;2022-10-22T03:20:20;9.05;;;1.85;;
27796;SDS011;15177;50.844;4.412;2022-10-22T03:22:45;8.32;;;2.03;;
27796;SDS011;15177;50.844;4.412;2022-10-22T03:25:12;5.57;;;1.48;;
27796;SDS011;15177;50.844;4.412;2022-10-22T03:27:42;5.60;;;1.30;;
27796;SDS011;15177;50.844;4.412;2022-10-22T03:30:09;9.07;;;2.28;;
27796;SDS011;15177;50.844;4.412;2022-10-22T03:32:35;7.60;;;2.13;;
27796;SDS011;15177;50.844;4.412;2022-10-22T03:35:01;5.72;;;1.35;;
27796;SDS011;15177;50.844;4.412;2022-10-22T03:37:26;9.90;;;1.88;;
27796;SDS011;15177;50.844;4.412;2022-10-22T03:39:52;8.30;;;2.20;;
27796;SDS011;15177;50.844;4.412;2022-10-22T03:42:19;11.90;;;3.10;;
27796;SDS011;15177;50.844;4.412;2022-10-22T03:44:45;6.18;;;1.70;;
27796;SDS011;15177;50.844;4.412;2022-10-22T03:47:11;5.75;;;1.73;;
27796;SDS011;15177;50.844;4.412;2022-10-22T03:49:38;11.40;;;2.33;;
27796;SDS011;15177;50.844;4.412;2022-10-22T03:52:09;5.65;;;1.60;;
27796;SDS011;15177;50.844;4.412;2022-10-22T03:54:37;8.80;;;1.70;;
27796;SDS011;15177;50.844;4.412;2022-10-22T03:57:03;11.63;;;1.60;;
27796;SDS011;15177;50.844;4.412;2022-10-22T03:59:34;5.82;;;1.35;;
27796;SDS011;15177;50.844;4.412;2022-10-22T04:02:00;8.23;;;2.00;;
27796;SDS011;15177;50.844;4.412;2022-10-22T04:04:26;7.00;;;1.95;;
27796;SDS011;15177;50.844;4.412;2022-10-22T04:06:51;6.10;;;1.83;;
27796;SDS011;15177;50.844;4.412;2022-10-22T04:09:17;10.75;;;2.08;;
27796;SDS011;15177;50.844;4.412;2022-10-22T04:11:43;11.57;;;2.05;;
27796;SDS011;15177;50.844;4.412;2022-10-22T04:14:09;7.93;;;1.70;;
27796;SDS011;15177;50.844;4.412;2022-10-22T04:16:37;8.77;;;1.80;;
27796;SDS011;15177;50.844;4.412;2022-10-22T04:19:04;5.53;;;1.58;;
27796;SDS011;15177;50.844;4.412;2022-10-22T04:21:29;10.82;;;1.70;;
27796;SDS011;15177;50.844;4.412;2022-10-22T04:23:55;9.50;;;1.67;;
27796;SDS011;15177;50.844;4.412;2022-10-22T04:26:21;12.70;;;2.67;;
27796;SDS011;15177;50.844;4.412;2022-10-22T04:28:47;10.60;;;1.50;;
27796;SDS011;15177;50.844;4.412;2022-10-22T04:31:16;12.23;;;1.67;;
27796;SDS011;15177;50.844;4.412;2022-10-22T04:33:43;9.48;;;1.60;;
27796;SDS011;15177;50.844;4.412;2022-10-22T04:36:12;8.63;;;1.98;;
27796;SDS011;15177;50.844;4.412;2022-10-22T04:38:41;7.82;;;1.52;;
27796;SDS011;15177;50.844;4.412;2022-10-22T04:41:11;9.25;;;1.23;;
27796;SDS011;15177;50.844;4.412;2022-10-22T04:43:43;10.23;;;1.65;;
27796;SDS011;15177;50.844;4.412;2022-10-22T04:46:09;4.63;;;1.30;;
27796;SDS011;15177;50.844;4.412;2022-10-22T04:48:37;9.52;;;1.63;;
27796;SDS011;15177;50.844;4.412;2022-10-22T04:51:03;9.13;;;1.33;;
27796;SDS011;15177;50.844;4.412;2022-10-22T04:53:30;8.73;;;2.15;;
27796;SDS011;15177;50.844;4.412;2022-10-22T04:56:09;7.03;;;1.92;;
27796;SDS011;15177;50.844;4.412;2022-10-22T04:58:41;8.90;;;1.73;;
27796;SDS011;15177;50.844;4.412;2022-10-22T05:01:08;8.95;;;1.85;;
27796;SDS011;15177;50.844;4.412;2022-10-22T05:03:38;9.38;;;2.05;;
27796;SDS011;15177;50.844;4.412;2022-10-22T05:06:04;7.75;;;1.70;;
27796;SDS011;15177;50.844;4.412;2022-10-22T05:08:31;9.00;;;1.70;;
27796;SDS011;15177;50.844;4.412;2022-10-22T05:10:56;4.40;;;1.13;;
27796;SDS011;15177;50.844;4.412;2022-10-22T05:13:22;8.00;;;1.55;;
27796;SDS011;15177;50.844;4.412;2022-10-22T05:15:48;11.00;;;2.63;;
27796;SDS011;15177;50.844;4.412;2022-10-22T05:18:13;9.63;;;1.88;;
27796;SDS011;15177;50.844;4.412;2022-10-22T05:20:39;9.00;;;2.33;;
27796;SDS011;15177;50.844;4.412;2022-10-22T05:23:06;5.97;;;1.92;;
27796;SDS011;15177;50.844;4.412;2022-10-22T05:25:35;8.35;;;1.48;;
27796;SDS011;15177;50.844;4.412;2022-10-22T05:28:01;8.85;;;1.55;;
27796;SDS011;15177;50.844;4.412;2022-10-22T05:30:27;7.63;;;1.77;;
27796;SDS011;15177;50.844;4.412;2022-10-22T05:32:53;12.48;;;1.80;;
27796;SDS011;15177;50.844;4.412;2022-10-22T05:35:18;10.90;;;1.95;;
27796;SDS011;15177;50.844;4.412;2022-10-22T05:37:44;9.80;;;1.88;;
27796;SDS011;15177;50.844;4.412;2022-10-22T05:40:10;15.77;;;1.48;;
27796;SDS011;15177;50.844;4.412;2022-10-22T05:42:36;7.95;;;1.58;;
27796;SDS011;15177;50.844;4.412;2022-10-22T05:45:02;4.97;;;1.42;;
27796;SDS011;15177;50.844;4.412;2022-10-22T05:47:28;14.75;;;2.08;;
27796;SDS011;15177;50.844;4.412;2022-10-22T05:49:55;8.73;;;1.67;;
27796;SDS011;15177;50.844;4.412;2022-10-22T05:52:21;5.05;;;2.08;;
27796;SDS011;15177;50.844;4.412;2022-10-22T05:54:47;8.27;;;1.90;;
27796;SDS011;15177;50.844;4.412;2022-10-22T05:57:13;13.30;;;1.45;;
27796;SDS011;15177;50.844;4.412;2022-10-22T05:59:40;9.85;;;1.67;;
27796;SDS011;15177;50.844;4.412;2022-10-22T06:02:07;13.30;;;1.95;;
27796;SDS011;15177;50.844;4.412;2022-10-22T06:04:34;7.13;;;1.40;;
27796;SDS011;15177;50.844;4.412;2022-10-22T06:06:59;6.78;;;1.40;;
27796;SDS011;15177;50.844;4.412;2022-10-22T06:09:35;7.22;;;1.67;;
27796;SDS011;15177;50.844;4.412;2022-10-22T06:12:01;6.07;;;1.42;;
27796;SDS011;15177;50.844;4.412;2022-10-22T06:14:26;8.38;;;1.63;;
27796;SDS011;15177;50.844;4.412;2022-10-22T06:16:53;9.23;;;1.45;;
27796;SDS011;15177;50.844;4.412;2022-10-22T06:19:20;8.73;;;2.10;;
27796;SDS011;15177;50.844;4.412;2022-10-22T06:21:48;8.57;;;1.70;;
27796;SDS011;15177;50.844;4.412;2022-10-22T06:24:16;16.70;;;2.10;;
27796;SDS011;15177;50.844;4.412;2022-10-22T06:26:42;3.90;;;1.23;;
27796;SDS011;15177;50.844;4.412;2022-10-22T06:29:08;4.25;;;1.50;;
27796;SDS011;15177;50.844;4.412;2022-10-22T06:31:34;8.38;;;1.80;;
27796;SDS011;15177;50.844;4.412;2022-10-22T06:34:03;10.60;;;1.88;;
27796;SDS011;15177;50.844;4.412;2022-10-22T06:36:34;10.48;;;2.92;;
27796;SDS011;15177;50.844;4.412;2022-10-22T06:39:00;14.00;;;2.17;;
27796;SDS011;15177;50.844;4.412;2022-10-22T06:41:25;10.65;;;1.15;;
27796;SDS011;15177;50.844;4.412;2022-10-22T06:43:52;7.90;;;1.38;;
27796;SDS011;15177;50.844;4.412;2022-10-22T06:46:18;13.68;;;2.00;;
27796;SDS011;15177;50.844;4.412;2022-10-22T06:49:03;6.15;;;1.65;;
27796;SDS011;15177;50.844;4.412;2022-10-22T06:51:29;10.38;;;2.22;;
27796;SDS011;15177;50.844;4.412;2022-10-22T06:53:56;3.90;;;1.13;;
27796;SDS011;15177;50.844;4.412;2022-10-22T06:56:23;7.47;;;1.20;;
27796;SDS011;15177;50.844;4.412;2022-10-22T06:58:50;8.20;;;1.67;;
27796;SDS011;15177;50.844;4.412;2022-10-22T07:01:18;7.07;;;1.48;;
27796;SDS011;15177;50.844;4.412;2022-10-22T07:03:46;9.27;;;2.00;;
27796;SDS011;15177;50.844;4.412;2022-10-22T07:06:13;8.10;;;2.53;;
27796;SDS011;15177;50.844;4.412;2022-10-22T07:08:39;9.25;;;1.63;;
27796;SDS011;15177;50.844;4.412;2022-10-22T07:13:33;8.68;;;1.77;;
27796;SDS011;15177;50.844;4.412;2022-10-22T07:15:58;4.07;;;1.35;;
27796;SDS011;15177;50.844;4.412;2022-10-22T07:18:24;5.05;;;1.40;;
27796;SDS011;15177;50.844;4.412;2022-10-22T07:20:50;11.32;;;1.60;;
27796;SDS011;15177;50.844;4.412;2022-10-22T07:23:16;7.65;;;1.40;;
27796;SDS011;15177;50.844;4.412;2022-10-22T07:25:41;5.32;;;1.58;;
27796;SDS011;15177;50.844;4.412;2022-10-22T07:28:07;7.05;;;2.03;;
27796;SDS011;15177;50.844;4.412;2022-10-22T07:30:33;6.93;;;1.40;;
27796;SDS011;15177;50.844;4.412;2022-10-22T07:33:00;7.57;;;1.63;;
27796;SDS011;15177;50.844;4.412;2022-10-22T07:35:25;11.68;;;2.72;;
27796;SDS011;15177;50.844;4.412;2022-10-22T07:37:51;5.35;;;1.60;;
27796;SDS011;15177;50.844;4.412;2022-10-22T07:40:16;7.28;;;1.50;;
27796;SDS011;15177;50.844;4.412;2022-10-22T07:42:42;12.13;;;1.90;;
27796;SDS011;15177;50.844;4.412;2022-10-22T07:45:08;6.55;;;1.67;;
27796;SDS011;15177;50.844;4.412;2022-10-22T07:47:34;7.03;;;1.30;;
27796;SDS011;15177;50.844;4.412;2022-10-22T07:49:59;9.23;;;2.40;;
27796;SDS011;15177;50.844;4.412;2022-10-22T07:52:25;7.70;;;2.00;;
27796;SDS011;15177;50.844;4.412;2022-10-22T07:54:51;8.73;;;1.70;;
27796;SDS011;15177;50.844;4.412;2022-10-22T07:57:17;3.83;;;1.45;;
27796;SDS011;15177;50.844;4.412;2022-10-22T07:59:43;9.98;;;1.73;;
27796;SDS011;15177;50.844;4.412;2022-10-22T08:02:12;6.70;;;1.88;;
27796;SDS011;15177;50.844;4.412;2022-10-22T08:04:38;4.78;;;1.25;;
27796;SDS011;15177;50.844;4.412;2022-10-22T08:07:04;9.98;;;1.40;;
27796;SDS011;15177;50.844;4.412;2022-10-22T08:09:30;8.63;;;1.63;;
27796;SDS011;15177;50.844;4.412;2022-10-22T08:11:55;4.82;;;1.63;;
27796;SDS011;15177;50.844;4.412;2022-10-22T08:14:21;5.25;;;1.38;;
27796;SDS011;15177;50.844;4.412;2022-10-22T08:16:46;8.50;;;1.70;;
27796;SDS011;15177;50.844;4.412;2022-10-22T08:19:12;6.18;;;1.65;;
27796;SDS011;15177;50.844;4.412;2022-10-22T08:21:44;5.28;;;1.40;;
27796;SDS011;15177;50.844;4.412;2022-10-22T08:24:10;6.45;;;1.90;;
27796;SDS011;15177;50.844;4.412;2022-10-22T08:26:36;7.13;;;1.65;;
27796;SDS011;15177;50.844;4.412;2022-10-22T08:29:02;8.73;;;1.73;;
27796;SDS011;15177;50.844;4.412;2022-10-22T08:31:27;6.68;;;1.55;;
27796;SDS011;15177;50.844;4.412;2022-10-22T08:33:53;5.97;;;1.80;;
27796;SDS011;15177;50.844;4.412;2022-10-22T08:36:19;7.95;;;1.52;;
27796;SDS011;15177;50.844;4.412;2022-10-22T08:38:45;7.68;;;1.92;;
27796;SDS011;15177;50.844;4.412;2022-10-22T08:41:12;8.18;;;1.30;;
27796;SDS011;15177;50.844;4.412;2022-10-22T08:43:53;7.05;;;1.67;;
27796;SDS011;15177;50.844;4.412;2022-10-22T08:49:25;12.32;;;1.65;;
27796;SDS011;15177;50.844;4.412;2022-10-22T08:51:54;10.20;;;1.92;;
27796;SDS011;15177;50.844;4.412;2022-10-22T08:59:34;4.03;;;1.67;;
27796;SDS011;15177;50.844;4.412;2022-10-22T09:02:21;7.97;;;1.65;;
27796;SDS011;15177;50.844;4.412;2022-10-22T09:05:15;6.45;;;2.20;;
27796;SDS011;15177;50.844;4.412;2022-10-22T09:07:48;9.98;;;1.50;;
27796;SDS011;15177;50.844;4.412;2022-10-22T09:10:15;7.05;;;2.08;;
27796;SDS011;15177;50.844;4.412;2022-10-22T09:12:43;7.22;;;1.90;;
27796;SDS011;15177;50.844;4.412;2022-10-22T09:15:15;9.10;;;1.27;;
27796;SDS011;15177;50.844;4.412;2022-10-22T09:20:53;9.32;;;1.73;;
27796;SDS011;15177;50.844;4.412;2022-10-22T09:26:05;5.35;;;1.90;;
27796;SDS011;15177;50.844;4.412;2022-10-22T09:28:37;7.88;;;1.58;;
27796;SDS011;15177;50.844;4.412;2022-10-22T09:31:08;10.25;;;1.52;;
27796;SDS011;15177;50.844;4.412;2022-10-22T09:33:38;5.50;;;1.70;;
27796;SDS011;15177;50.844;4.412;2022-10-22T09:36:12;8.43;;;1.75;;
27796;SDS011;15177;50.844;4.412;2022-10-22T09:38:47;6.55;;;1.48;;
27796;SDS011;15177;50.844;4.412;2022-10-22T09:41:18;6.97;;;1.60;;
27796;SDS011;15177;50.844;4.412;2022-10-22T09:43:47;13.40;;;2.58;;
27796;SDS011;15177;50.844;4.412;2022-10-22T09:46:14;7.45;;;1.33;;
27796;SDS011;15177;50.844;4.412;2022-10-22T09:48:43;7.07;;;1.50;;
27796;SDS011;15177;50.844;4.412;2022-10-22T09:51:34;10.30;;;2.15;;
27796;SDS011;15177;50.844;4.412;2022-10-22T09:54:13;8.77;;;2.13;;
27796;SDS011;15177;50.844;4.412;2022-10-22T09:56:42;7.25;;;1.75;;
27796;SDS011;15177;50.844;4.412;2022-10-22T09:59:14;3.70;;;1.70;;
27796;SDS011;15177;50.844;4.412;2022-10-22T10:01:41;5.97;;;1.63;;
27796;SDS011;15177;50.844;4.412;2022-10-22T10:04:09;6.90;;;1.40;;
27796;SDS011;15177;50.844;4.412;2022-10-22T10:06:37;9.30;;;1.45;;
27796;SDS011;15177;50.844;4.412;2022-10-22T10:09:14;6.75;;;1.50;;
27796;SDS011;15177;50.844;4.412;2022-10-22T10:14:30;6.68;;;1.92;;
27796;SDS011;15177;50.844;4.412;2022-10-22T10:20:15;5.35;;;1.10;;
27796;SDS011;15177;50.844;4.412;2022-10-22T10:23:02;3.83;;;1.13;;
27796;SDS011;15177;50.844;4.412;2022-10-22T10:28:13;6.63;;;1.90;;
27796;SDS011;15177;50.844;4.412;2022-10-22T10:39:37;10.75;;;1.58;;
27796;SDS011;15177;50.844;4.412;2022-10-22T10:45:29;10.70;;;2.10;;
27796;SDS011;15177;50.844;4.412;2022-10-22T10:48:19;11.68;;;2.30;;
27796;SDS011;15177;50.844;4.412;2022-10-22T10:53:13;10.45;;;1.85;;
27796;SDS011;15177;50.844;4.412;2022-10-22T11:01:26;7.82;;;1.60;;
27796;SDS011;15177;50.844;4.412;2022-10-22T11:03:57;4.75;;;1.40;;
27796;SDS011;15177;50.844;4.412;2022-10-22T11:06:45;4.97;;;1.45;;
27796;SDS011;15177;50.844;4.412;2022-10-22T11:09:33;6.38;;;1.67;;
27796;SDS011;15177;50.844;4.412;2022-10-22T11:12:04;9.85;;;1.63;;
27796;SDS011;15177;50.844;4.412;2022-10-22T11:14:45;6.50;;;1.38;;
27796;SDS011;15177;50.844;4.412;2022-10-22T11:17:38;8.38;;;1.67;;
27796;SDS011;15177;50.844;4.412;2022-10-22T11:25:24;8.90;;;1.67;;
27796;SDS011;15177;50.844;4.412;2022-10-22T11:28:04;7.25;;;1.77;;
27796;SDS011;15177;50.844;4.412;2022-10-22T11:30:37;7.55;;;1.88;;
27796;SDS011;15177;50.844;4.412;2022-10-22T11:33:09;9.75;;;2.80;;
27796;SDS011;15177;50.844;4.412;2022-10-22T11:35:42;8.00;;;1.40;;
27796;SDS011;15177;50.844;4.412;2022-10-22T11:38:11;7.93;;;1.33;;
27796;SDS011;15177;50.844;4.412;2022-10-22T11:40:45;7.97;;;1.35;;
27796;SDS011;15177;50.844;4.412;2022-10-22T11:43:26;8.57;;;2.08;;
27796;SDS011;15177;50.844;4.412;2022-10-22T11:48:41;6.47;;;1.63;;
27796;SDS011;15177;50.844;4.412;2022-10-22T11:54:00;4.90;;;1.58;;
27796;SDS011;15177;50.844;4.412;2022-10-22T11:56:35;2.78;;;1.08;;
27796;SDS011;15177;50.844;4.412;2022-10-22T11:59:02;10.40;;;1.65;;
27796;SDS011;15177;50.844;4.412;2022-10-22T12:01:40;10.73;;;2.05;;
27796;SDS011;15177;50.844;4.412;2022-10-22T12:04:20;7.60;;;1.65;;
27796;SDS011;15177;50.844;4.412;2022-10-22T12:07:00;7.13;;;1.55;;
27796;SDS011;15177;50.844;4.412;2022-10-22T12:09:26;5.65;;;1.40;;
27796;SDS011;15177;50.844;4.412;2022-10-22T12:12:03;6.25;;;1.80;;
27796;SDS011;15177;50.844;4.412;2022-10-22T12:14:49;2.22;;;1.08;;
27796;SDS011;15177;50.844;4.412;2022-10-22T12:17:21;5.75;;;1.83;;
27796;SDS011;15177;50.844;4.412;2022-10-22T12:22:20;5.00;;;1.20;;
27796;SDS011;15177;50.844;4.412;2022-10-22T12:25:08;4.18;;;1.40;;
27796;SDS011;15177;50.844;4.412;2022-10-22T12:27:42;3.67;;;1.02;;
27796;SDS011;15177;50.844;4.412;2022-10-22T12:30:17;4.55;;;1.20;;
27796;SDS011;15177;50.844;4.412;2022-10-22T12:32:47;6.20;;;1.42;;
27796;SDS011;15177;50.844;4.412;2022-10-22T12:35:21;5.53;;;1.20;;
27796;SDS011;15177;50.844;4.412;2022-10-22T12:37:50;3.95;;;1.30;;
27796;SDS011;15177;50.844;4.412;2022-10-22T12:40:22;6.15;;;1.25;;
27796;SDS011;15177;50.844;4.412;2022-10-22T12:42:58;10.07;;;1.58;;
27796;SDS011;15177;50.844;4.412;2022-10-22T12:45:26;3.35;;;1.27;;
27796;SDS011;15177;50.844;4.412;2022-10-22T12:47:57;2.55;;;0.80;;
27796;SDS011;15177;50.844;4.412;2022-10-22T12:50:31;7.93;;;1.42;;
27796;SDS011;15177;50.844;4.412;2022-10-22T12:53:37;4.75;;;1.48;;
27796;SDS011;15177;50.844;4.412;2022-10-22T12:56:02;11.13;;;1.98;;
27796;SDS011;15177;50.844;4.412;2022-10-22T12:58:44;7.35;;;1.50;;
27796;SDS011;15177;50.844;4.412;2022-10-22T13:01:35;7.25;;;1.42;;
27796;SDS011;15177;50.844;4.412;2022-10-22T13:04:14;4.43;;;1.95;;
27796;SDS011;15177;50.844;4.412;2022-10-22T13:06:50;6.43;;;1.05;;
27796;SDS011;15177;50.844;4.412;2022-10-22T13:09:35;3.20;;;1.20;;
27796;SDS011;15177;50.844;4.412;2022-10-22T13:12:06;8.85;;;1.45;;
27796;SDS011;15177;50.844;4.412;2022-10-22T13:14:40;5.30;;;1.33;;
27796;SDS011;15177;50.844;4.412;2022-10-22T13:20:17;6.68;;;1.38;;
27796;SDS011;15177;50.844;4.412;2022-10-22T13:22:54;5.35;;;1.25;;
27796;SDS011;15177;50.844;4.412;2022-10-22T13:25:36;4.65;;;1.40;;
27796;SDS011;15177;50.844;4.412;2022-10-22T13:33:42;6.95;;;1.27;;
27796;SDS011;15177;50.844;4.412;2022-10-22T13:36:13;8.02;;;1.73;;
27796;SDS011;15177;50.844;4.412;2022-10-22T13:38:40;1.55;;;0.77;;
27796;SDS011;15177;50.844;4.412;2022-10-22T13:41:22;4.80;;;1.27;;
27796;SDS011;15177;50.844;4.412;2022-10-22T13:43:58;8.70;;;1.38;;
27796;SDS011;15177;50.844;4.412;2022-10-22T13:46:24;11.25;;;1.48;;
27796;SDS011;15177;50.844;4.412;2022-10-22T13:48:51;3.88;;;0.88;;
27796;SDS011;15177;50.844;4.412;2022-10-22T13:51:19;4.28;;;1.55;;
27796;SDS011;15177;50.844;4.412;2022-10-22T13:53:58;5.90;;;1.25;;
27796;SDS011;15177;50.844;4.412;2022-10-22T13:56:25;8.57;;;1.38;;
27796;SDS011;15177;50.844;4.412;2022-10-22T13:58:50;3.92;;;1.20;;
27796;SDS011;15177;50.844;4.412;2022-10-22T14:03:42;5.93;;;1.13;;
27796;SDS011;15177;50.844;4.412;2022-10-22T14:06:10;7.07;;;1.20;;
27796;SDS011;15177;50.844;4.412;2022-10-22T14:08:38;6.57;;;1.60;;
27796;SDS011;15177;50.844;4.412;2022-10-22T14:11:04;5.70;;;1.20;;
27796;SDS011;15177;50.844;4.412;2022-10-22T14:13:29;8.70;;;1.35;;
27796;SDS011;15177;50.844;4.412;2022-10-22T14:15:55;3.67;;;1.10;;
27796;SDS011;15177;50.844;4.412;2022-10-22T14:18:23;7.30;;;1.60;;
27796;SDS011;15177;50.844;4.412;2022-10-22T14:20:54;7.78;;;1.33;;
27796;SDS011;15177;50.844;4.412;2022-10-22T14:23:21;3.22;;;1.10;;
27796;SDS011;15177;50.844;4.412;2022-10-22T14:25:49;5.47;;;1.85;;
27796;SDS011;15177;50.844;4.412;2022-10-22T14:28:16;8.50;;;1.70;;
27796;SDS011;15177;50.844;4.412;2022-10-22T14:30:42;5.22;;;1.40;;
27796;SDS011;15177;50.844;4.412;2022-10-22T14:33:16;6.28;;;1.50;;
27796;SDS011;15177;50.844;4.412;2022-10-22T14:35:46;6.88;;;1.40;;
27796;SDS011;15177;50.844;4.412;2022-10-22T14:38:13;3.55;;;1.20;;
27796;SDS011;15177;50.844;4.412;2022-10-22T14:40:38;7.20;;;1.23;;
27796;SDS011;15177;50.844;4.412;2022-10-22T14:43:17;3.63;;;1.23;;
27796;SDS011;15177;50.844;4.412;2022-10-22T14:45:43;5.55;;;1.20;;
27796;SDS011;15177;50.844;4.412;2022-10-22T14:48:09;5.10;;;1.02;;
27796;SDS011;15177;50.844;4.412;2022-10-22T14:50:35;2.78;;;1.05;;
27796;SDS011;15177;50.844;4.412;2022-10-22T14:53:01;5.05;;;1.15;;
27796;SDS011;15177;50.844;4.412;2022-10-22T14:55:26;3.88;;;1.13;;
27796;SDS011;15177;50.844;4.412;2022-10-22T14:57:54;5.85;;;1.10;;
27796;SDS011;15177;50.844;4.412;2022-10-22T15:00:20;2.38;;;0.95;;
27796;SDS011;15177;50.844;4.412;2022-10-22T15:02:46;3.67;;;1.48;;
27796;SDS011;15177;50.844;4.412;2022-10-22T15:05:12;4.45;;;1.20;;
27796;SDS011;15177;50.844;4.412;2022-10-22T15:07:39;6.47;;;1.13;;
27796;SDS011;15177;50.844;4.412;2022-10-22T15:10:05;5.60;;;1.30;;
27796;SDS011;15177;50.844;4.412;2022-10-22T15:12:32;4.65;;;1.17;;
27796;SDS011;15177;50.844;4.412;2022-10-22T15:14:58;5.57;;;1.30;;
27796;SDS011;15177;50.844;4.412;2022-10-22T15:17:23;4.78;;;1.67;;
27796;SDS011;15177;50.844;4.412;2022-10-22T15:19:49;3.17;;;1.30;;
27796;SDS011;15177;50.844;4.412;2022-10-22T15:22:17;3.38;;;1.02;;
27796;SDS011;15177;50.844;4.412;2022-10-22T15:24:43;5.32;;;1.38;;
27796;SDS011;15177;50.844;4.412;2022-10-22T15:27:09;4.40;;;1.40;;
27796;SDS011;15177;50.844;4.412;2022-10-22T15:29:37;6.78;;;1.35;;
27796;SDS011;15177;50.844;4.412;2022-10-22T15:32:04;6.53;;;1.25;;
27796;SDS011;15177;50.844;4.412;2022-10-22T15:34:33;2.92;;;1.40;;
27796;SDS011;15177;50.844;4.412;2022-10-22T15:37:01;2.97;;;1.13;;
27796;SDS011;15177;50.844;4.412;2022-10-22T15:39:28;5.03;;;1.33;;
27796;SDS011;15177;50.844;4.412;2022-10-22T15:41:54;5.85;;;1.33;;
27796;SDS011;15177;50.844;4.412;2022-10-22T15:44:22;10.82;;;1.67;;
27796;SDS011;15177;50.844;4.412;2022-10-22T15:46:49;4.93;;;1.52;;
27796;SDS011;15177;50.844;4.412;2022-10-22T15:49:17;8.80;;;1.98;;
27796;SDS011;15177;50.844;4.412;2022-10-22T15:51:43;8.13;;;1.73;;
27796;SDS011;15177;50.844;4.412;2022-10-22T15:54:12;9.45;;;1.38;;
27796;SDS011;15177;50.844;4.412;2022-10-22T15:56:41;7.20;;;1.42;;
27796;SDS011;15177;50.844;4.412;2022-10-22T15:59:08;4.68;;;1.38;;
27796;SDS011;15177;50.844;4.412;2022-10-22T16:01:34;4.80;;;1.67;;
27796;SDS011;15177;50.844;4.412;2022-10-22T16:04:00;6.22;;;1.90;;
27796;SDS011;15177;50.844;4.412;2022-10-22T16:06:31;5.05;;;1.60;;
27796;SDS011;15177;50.844;4.412;2022-10-22T16:09:03;10.25;;;2.28;;
27796;SDS011;15177;50.844;4.412;2022-10-22T16:11:34;5.25;;;1.40;;
27796;SDS011;15177;50.844;4.412;2022-10-22T16:14:01;6.28;;;1.67;;
27796;SDS011;15177;50.844;4.412;2022-10-22T16:16:29;6.45;;;1.25;;
27796;SDS011;15177;50.844;4.412;2022-10-22T16:18:57;6.50;;;1.65;;
27796;SDS011;15177;50.844;4.412;2022-10-22T16:21:23;9.15;;;3.35;;
27796;SDS011;15177;50.844;4.412;2022-10-22T16:23:49;13.55;;;7.90;;
27796;SDS011;15177;50.844;4.412;2022-10-22T16:26:15;11.73;;;5.15;;
27796;SDS011;15177;50.844;4.412;2022-10-22T16:28:43;8.93;;;3.35;;
27796;SDS011;15177;50.844;4.412;2022-10-22T16:31:11;10.30;;;2.80;;